sensor_id;sensor_type;location;lat;lon;timestamp;P1;durP1;ratioP1;P2;durP2;ratioP2
9388;SDS011;4734;52.778;6.798;2023-03-03T00:02:29;14.73;;;10.40;;
9388;SDS011;4734;52.778;6.798;2023-03-03T00:05:15;13.03;;;10.20;;
9388;SDS011;4734;52.778;6.798;2023-03-03T00:08:01;14.83;;;11.33;;
9388;SDS011;4734;52.778;6.798;2023-03-03T00:10:47;16.37;;;11.53;;
9388;SDS011;4734;52.778;6.798;2023-03-03T00:13:39;14.20;;;10.73;;
9388;SDS011;4734;52.778;6.798;2023-03-03T00:16:27;15.77;;;10.67;;
9388;SDS011;4734;52.778;6.798;2023-03-03T00:19:14;13.53;;;11.13;;
9388;SDS011;4734;52.778;6.798;2023-03-03T00:22:01;13.93;;;10.00;;
9388;SDS011;4734;52.778;6.798;2023-03-03T00:24:52;15.27;;;12.03;;
9388;SDS011;4734;52.778;6.798;2023-03-03T00:27:37;14.27;;;10.73;;
9388;SDS011;4734;52.778;6.798;2023-03-03T00:30:25;14.13;;;11.30;;
9388;SDS011;4734;52.778;6.798;2023-03-03T00:33:13;14.53;;;11.03;;
9388;SDS011;4734;52.778;6.798;2023-03-03T00:42:12;13.57;;;10.40;;
9388;SDS011;4734;52.778;6.798;2023-03-03T00:44:59;15.97;;;11.07;;
9388;SDS011;4734;52.778;6.798;2023-03-03T00:47:46;13.80;;;10.60;;
9388;SDS011;4734;52.778;6.798;2023-03-03T00:50:32;13.00;;;9.70;;
9388;SDS011;4734;52.778;6.798;2023-03-03T00:53:19;13.90;;;10.73;;
9388;SDS011;4734;52.778;6.798;2023-03-03T00:56:05;14.70;;;11.07;;
9388;SDS011;4734;52.778;6.798;2023-03-03T00:58:51;14.93;;;11.90;;
9388;SDS011;4734;52.778;6.798;2023-03-03T01:01:37;14.20;;;10.87;;
9388;SDS011;4734;52.778;6.798;2023-03-03T01:04:24;16.27;;;10.93;;
9388;SDS011;4734;52.778;6.798;2023-03-03T01:07:10;12.67;;;9.50;;
9388;SDS011;4734;52.778;6.798;2023-03-03T01:09:55;11.87;;;8.93;;
9388;SDS011;4734;52.778;6.798;2023-03-03T01:12:41;12.40;;;9.60;;
9388;SDS011;4734;52.778;6.798;2023-03-03T01:15:27;12.90;;;9.53;;
9388;SDS011;4734;52.778;6.798;2023-03-03T01:18:13;12.83;;;9.93;;
9388;SDS011;4734;52.778;6.798;2023-03-03T01:21:00;12.37;;;9.30;;
9388;SDS011;4734;52.778;6.798;2023-03-03T01:23:46;13.33;;;9.33;;
9388;SDS011;4734;52.778;6.798;2023-03-03T01:26:32;13.87;;;10.40;;
9388;SDS011;4734;52.778;6.798;2023-03-03T01:29:17;15.87;;;11.10;;
9388;SDS011;4734;52.778;6.798;2023-03-03T01:32:03;13.30;;;10.93;;
9388;SDS011;4734;52.778;6.798;2023-03-03T01:34:49;14.83;;;11.33;;
9388;SDS011;4734;52.778;6.798;2023-03-03T01:37:36;14.07;;;10.43;;
9388;SDS011;4734;52.778;6.798;2023-03-03T01:40:23;15.93;;;11.23;;
9388;SDS011;4734;52.778;6.798;2023-03-03T01:43:11;14.73;;;10.47;;
9388;SDS011;4734;52.778;6.798;2023-03-03T01:49:02;13.73;;;10.17;;
9388;SDS011;4734;52.778;6.798;2023-03-03T01:51:51;14.37;;;10.63;;
9388;SDS011;4734;52.778;6.798;2023-03-03T01:54:41;16.23;;;10.47;;
9388;SDS011;4734;52.778;6.798;2023-03-03T01:57:28;14.33;;;10.23;;
9388;SDS011;4734;52.778;6.798;2023-03-03T02:00:16;13.40;;;9.53;;
9388;SDS011;4734;52.778;6.798;2023-03-03T02:03:02;15.27;;;10.20;;
9388;SDS011;4734;52.778;6.798;2023-03-03T02:05:49;19.07;;;9.97;;
9388;SDS011;4734;52.778;6.798;2023-03-03T02:08:35;14.33;;;10.53;;
9388;SDS011;4734;52.778;6.798;2023-03-03T02:11:25;20.90;;;10.57;;
9388;SDS011;4734;52.778;6.798;2023-03-03T02:14:12;21.47;;;11.13;;
9388;SDS011;4734;52.778;6.798;2023-03-03T02:16:57;14.70;;;9.80;;
9388;SDS011;4734;52.778;6.798;2023-03-03T02:19:46;14.93;;;9.73;;
9388;SDS011;4734;52.778;6.798;2023-03-03T02:22:38;25.90;;;9.90;;
9388;SDS011;4734;52.778;6.798;2023-03-03T02:25:27;18.30;;;10.47;;
9388;SDS011;4734;52.778;6.798;2023-03-03T02:28:16;17.63;;;9.63;;
9388;SDS011;4734;52.778;6.798;2023-03-03T02:31:04;14.73;;;9.50;;
9388;SDS011;4734;52.778;6.798;2023-03-03T02:33:53;22.00;;;8.83;;
9388;SDS011;4734;52.778;6.798;2023-03-03T02:36:39;28.17;;;8.27;;
9388;SDS011;4734;52.778;6.798;2023-03-03T02:39:25;22.10;;;9.50;;
9388;SDS011;4734;52.778;6.798;2023-03-03T02:42:13;25.03;;;8.97;;
9388;SDS011;4734;52.778;6.798;2023-03-03T02:45:03;14.57;;;7.90;;
9388;SDS011;4734;52.778;6.798;2023-03-03T02:47:49;17.40;;;7.33;;
9388;SDS011;4734;52.778;6.798;2023-03-03T02:50:35;17.37;;;7.73;;
9388;SDS011;4734;52.778;6.798;2023-03-03T02:53:20;11.20;;;7.80;;
9388;SDS011;4734;52.778;6.798;2023-03-03T02:56:06;28.63;;;8.47;;
9388;SDS011;4734;52.778;6.798;2023-03-03T02:58:52;23.20;;;8.30;;
9388;SDS011;4734;52.778;6.798;2023-03-03T03:01:40;18.23;;;8.33;;
9388;SDS011;4734;52.778;6.798;2023-03-03T03:04:26;16.70;;;8.27;;
9388;SDS011;4734;52.778;6.798;2023-03-03T03:07:12;17.43;;;8.03;;
9388;SDS011;4734;52.778;6.798;2023-03-03T03:09:57;26.37;;;8.13;;
9388;SDS011;4734;52.778;6.798;2023-03-03T03:12:43;27.10;;;9.10;;
9388;SDS011;4734;52.778;6.798;2023-03-03T03:15:29;14.43;;;8.63;;
9388;SDS011;4734;52.778;6.798;2023-03-03T03:18:16;16.47;;;8.17;;
9388;SDS011;4734;52.778;6.798;2023-03-03T03:21:05;28.73;;;8.87;;
9388;SDS011;4734;52.778;6.798;2023-03-03T03:23:51;20.00;;;8.43;;
9388;SDS011;4734;52.778;6.798;2023-03-03T03:26:37;20.73;;;7.93;;
9388;SDS011;4734;52.778;6.798;2023-03-03T03:29:23;15.53;;;8.53;;
9388;SDS011;4734;52.778;6.798;2023-03-03T03:32:09;19.67;;;9.20;;
9388;SDS011;4734;52.778;6.798;2023-03-03T03:34:56;21.17;;;8.37;;
9388;SDS011;4734;52.778;6.798;2023-03-03T03:37:42;21.03;;;8.00;;
9388;SDS011;4734;52.778;6.798;2023-03-03T03:40:28;19.23;;;8.27;;
9388;SDS011;4734;52.778;6.798;2023-03-03T03:43:13;23.23;;;8.27;;
9388;SDS011;4734;52.778;6.798;2023-03-03T03:45:59;21.87;;;8.37;;
9388;SDS011;4734;52.778;6.798;2023-03-03T03:48:45;24.30;;;8.17;;
9388;SDS011;4734;52.778;6.798;2023-03-03T03:51:32;27.30;;;7.97;;
9388;SDS011;4734;52.778;6.798;2023-03-03T03:54:20;21.57;;;7.70;;
9388;SDS011;4734;52.778;6.798;2023-03-03T03:57:06;20.20;;;8.07;;
9388;SDS011;4734;52.778;6.798;2023-03-03T03:59:52;17.00;;;8.93;;
9388;SDS011;4734;52.778;6.798;2023-03-03T04:02:38;18.00;;;8.40;;
9388;SDS011;4734;52.778;6.798;2023-03-03T04:05:23;13.87;;;8.10;;
9388;SDS011;4734;52.778;6.798;2023-03-03T04:08:11;23.50;;;8.00;;
9388;SDS011;4734;52.778;6.798;2023-03-03T04:10:57;17.03;;;7.07;;
9388;SDS011;4734;52.778;6.798;2023-03-03T04:13:42;35.83;;;9.63;;
9388;SDS011;4734;52.778;6.798;2023-03-03T04:16:28;20.60;;;8.40;;
9388;SDS011;4734;52.778;6.798;2023-03-03T04:19:14;17.50;;;7.03;;
9388;SDS011;4734;52.778;6.798;2023-03-03T04:21:59;27.73;;;8.40;;
9388;SDS011;4734;52.778;6.798;2023-03-03T04:24:47;18.30;;;7.97;;
9388;SDS011;4734;52.778;6.798;2023-03-03T04:27:33;17.07;;;6.77;;
9388;SDS011;4734;52.778;6.798;2023-03-03T04:30:19;22.27;;;6.93;;
9388;SDS011;4734;52.778;6.798;2023-03-03T04:33:05;24.93;;;6.93;;
9388;SDS011;4734;52.778;6.798;2023-03-03T04:35:51;21.70;;;7.13;;
9388;SDS011;4734;52.778;6.798;2023-03-03T04:38:37;25.97;;;7.80;;
9388;SDS011;4734;52.778;6.798;2023-03-03T04:41:24;24.20;;;6.90;;
9388;SDS011;4734;52.778;6.798;2023-03-03T04:44:10;22.90;;;7.00;;
9388;SDS011;4734;52.778;6.798;2023-03-03T04:46:55;11.43;;;6.30;;
9388;SDS011;4734;52.778;6.798;2023-03-03T04:49:41;20.47;;;6.67;;
9388;SDS011;4734;52.778;6.798;2023-03-03T04:52:27;24.90;;;7.53;;
9388;SDS011;4734;52.778;6.798;2023-03-03T04:55:13;18.03;;;6.73;;
9388;SDS011;4734;52.778;6.798;2023-03-03T04:58:00;16.87;;;6.23;;
9388;SDS011;4734;52.778;6.798;2023-03-03T05:00:47;23.67;;;8.70;;
9388;SDS011;4734;52.778;6.798;2023-03-03T05:03:37;19.07;;;6.80;;
9388;SDS011;4734;52.778;6.798;2023-03-03T05:06:23;21.07;;;6.73;;
9388;SDS011;4734;52.778;6.798;2023-03-03T05:09:08;15.67;;;6.53;;
9388;SDS011;4734;52.778;6.798;2023-03-03T05:11:54;20.93;;;7.80;;
9388;SDS011;4734;52.778;6.798;2023-03-03T05:14:41;19.60;;;7.47;;
9388;SDS011;4734;52.778;6.798;2023-03-03T05:17:27;17.13;;;6.60;;
9388;SDS011;4734;52.778;6.798;2023-03-03T05:20:13;19.47;;;7.87;;
9388;SDS011;4734;52.778;6.798;2023-03-03T05:22:59;15.50;;;7.57;;
9388;SDS011;4734;52.778;6.798;2023-03-03T05:25:46;23.30;;;7.83;;
9388;SDS011;4734;52.778;6.798;2023-03-03T05:28:32;14.33;;;7.43;;
9388;SDS011;4734;52.778;6.798;2023-03-03T05:31:19;21.63;;;7.43;;
9388;SDS011;4734;52.778;6.798;2023-03-03T05:34:05;36.37;;;7.40;;
9388;SDS011;4734;52.778;6.798;2023-03-03T05:36:51;14.57;;;6.47;;
9388;SDS011;4734;52.778;6.798;2023-03-03T05:39:36;13.90;;;6.13;;
9388;SDS011;4734;52.778;6.798;2023-03-03T05:42:22;36.10;;;7.57;;
9388;SDS011;4734;52.778;6.798;2023-03-03T05:45:08;7.40;;;6.30;;
9388;SDS011;4734;52.778;6.798;2023-03-03T05:47:56;13.90;;;6.43;;
9388;SDS011;4734;52.778;6.798;2023-03-03T05:50:41;22.27;;;8.03;;
9388;SDS011;4734;52.778;6.798;2023-03-03T05:53:27;22.70;;;8.27;;
9388;SDS011;4734;52.778;6.798;2023-03-03T05:56:13;25.43;;;7.60;;
9388;SDS011;4734;52.778;6.798;2023-03-03T05:58:59;33.40;;;8.37;;
9388;SDS011;4734;52.778;6.798;2023-03-03T06:01:45;29.50;;;7.73;;
9388;SDS011;4734;52.778;6.798;2023-03-03T06:04:32;27.90;;;7.80;;
9388;SDS011;4734;52.778;6.798;2023-03-03T06:07:17;43.77;;;8.60;;
9388;SDS011;4734;52.778;6.798;2023-03-03T06:10:04;47.67;;;8.40;;
9388;SDS011;4734;52.778;6.798;2023-03-03T06:12:50;32.53;;;8.43;;
9388;SDS011;4734;52.778;6.798;2023-03-03T06:15:37;37.97;;;7.97;;
9388;SDS011;4734;52.778;6.798;2023-03-03T06:18:23;21.27;;;7.23;;
9388;SDS011;4734;52.778;6.798;2023-03-03T06:21:10;20.80;;;8.13;;
9388;SDS011;4734;52.778;6.798;2023-03-03T06:23:56;23.07;;;7.20;;
9388;SDS011;4734;52.778;6.798;2023-03-03T06:26:41;11.33;;;6.47;;
9388;SDS011;4734;52.778;6.798;2023-03-03T06:29:27;17.47;;;7.00;;
9388;SDS011;4734;52.778;6.798;2023-03-03T06:32:13;22.37;;;7.10;;
9388;SDS011;4734;52.778;6.798;2023-03-03T06:34:59;13.50;;;7.20;;
9388;SDS011;4734;52.778;6.798;2023-03-03T06:37:46;29.93;;;7.37;;
9388;SDS011;4734;52.778;6.798;2023-03-03T06:40:33;17.13;;;7.20;;
9388;SDS011;4734;52.778;6.798;2023-03-03T06:43:19;24.97;;;7.80;;
9388;SDS011;4734;52.778;6.798;2023-03-03T06:46:05;20.17;;;7.57;;
9388;SDS011;4734;52.778;6.798;2023-03-03T06:48:51;17.73;;;7.63;;
9388;SDS011;4734;52.778;6.798;2023-03-03T06:51:37;18.80;;;8.63;;
9388;SDS011;4734;52.778;6.798;2023-03-03T06:54:26;18.83;;;8.50;;
9388;SDS011;4734;52.778;6.798;2023-03-03T06:57:15;14.03;;;8.10;;
9388;SDS011;4734;52.778;6.798;2023-03-03T07:00:06;21.33;;;8.93;;
9388;SDS011;4734;52.778;6.798;2023-03-03T07:02:56;20.23;;;8.40;;
9388;SDS011;4734;52.778;6.798;2023-03-03T07:05:43;16.47;;;9.17;;
9388;SDS011;4734;52.778;6.798;2023-03-03T07:08:30;21.83;;;8.70;;
9388;SDS011;4734;52.778;6.798;2023-03-03T07:11:18;12.63;;;7.73;;
9388;SDS011;4734;52.778;6.798;2023-03-03T07:14:04;14.67;;;7.97;;
9388;SDS011;4734;52.778;6.798;2023-03-03T07:16:50;12.63;;;7.43;;
9388;SDS011;4734;52.778;6.798;2023-03-03T07:19:37;11.90;;;8.00;;
9388;SDS011;4734;52.778;6.798;2023-03-03T07:22:24;11.13;;;7.37;;
9388;SDS011;4734;52.778;6.798;2023-03-03T07:25:17;12.47;;;7.87;;
9388;SDS011;4734;52.778;6.798;2023-03-03T07:28:10;12.00;;;8.33;;
9388;SDS011;4734;52.778;6.798;2023-03-03T07:30:59;14.60;;;8.97;;
9388;SDS011;4734;52.778;6.798;2023-03-03T07:33:44;14.43;;;8.77;;
9388;SDS011;4734;52.778;6.798;2023-03-03T07:36:34;14.13;;;9.63;;
9388;SDS011;4734;52.778;6.798;2023-03-03T07:39:30;15.50;;;9.93;;
9388;SDS011;4734;52.778;6.798;2023-03-03T07:42:20;13.43;;;8.63;;
9388;SDS011;4734;52.778;6.798;2023-03-03T07:45:19;15.47;;;9.93;;
9388;SDS011;4734;52.778;6.798;2023-03-03T07:48:08;13.63;;;8.97;;
9388;SDS011;4734;52.778;6.798;2023-03-03T07:51:00;14.77;;;9.73;;
9388;SDS011;4734;52.778;6.798;2023-03-03T07:53:47;17.00;;;9.53;;
9388;SDS011;4734;52.778;6.798;2023-03-03T07:56:34;15.43;;;10.00;;
9388;SDS011;4734;52.778;6.798;2023-03-03T07:59:21;15.90;;;9.90;;
9388;SDS011;4734;52.778;6.798;2023-03-03T08:02:14;14.80;;;9.53;;
9388;SDS011;4734;52.778;6.798;2023-03-03T08:05:20;16.77;;;10.03;;
9388;SDS011;4734;52.778;6.798;2023-03-03T08:08:14;14.07;;;9.17;;
9388;SDS011;4734;52.778;6.798;2023-03-03T08:11:04;16.63;;;9.80;;
9388;SDS011;4734;52.778;6.798;2023-03-03T08:13:52;15.70;;;9.80;;
9388;SDS011;4734;52.778;6.798;2023-03-03T08:16:38;16.33;;;9.53;;
9388;SDS011;4734;52.778;6.798;2023-03-03T08:19:26;16.33;;;9.93;;
9388;SDS011;4734;52.778;6.798;2023-03-03T08:22:13;15.37;;;10.27;;
9388;SDS011;4734;52.778;6.798;2023-03-03T08:25:00;14.90;;;9.60;;
9388;SDS011;4734;52.778;6.798;2023-03-03T08:27:46;15.10;;;8.77;;
9388;SDS011;4734;52.778;6.798;2023-03-03T08:30:32;13.00;;;8.13;;
9388;SDS011;4734;52.778;6.798;2023-03-03T08:33:18;16.40;;;9.73;;
9388;SDS011;4734;52.778;6.798;2023-03-03T08:36:05;13.43;;;9.33;;
9388;SDS011;4734;52.778;6.798;2023-03-03T08:38:51;13.57;;;9.13;;
9388;SDS011;4734;52.778;6.798;2023-03-03T08:41:37;15.33;;;9.03;;
9388;SDS011;4734;52.778;6.798;2023-03-03T08:44:26;14.50;;;8.70;;
9388;SDS011;4734;52.778;6.798;2023-03-03T08:47:12;15.03;;;8.03;;
9388;SDS011;4734;52.778;6.798;2023-03-03T08:49:57;14.50;;;8.30;;
9388;SDS011;4734;52.778;6.798;2023-03-03T08:52:44;12.23;;;8.20;;
9388;SDS011;4734;52.778;6.798;2023-03-03T08:55:30;12.87;;;8.20;;
9388;SDS011;4734;52.778;6.798;2023-03-03T08:58:17;12.57;;;8.00;;
9388;SDS011;4734;52.778;6.798;2023-03-03T09:01:03;12.33;;;8.60;;
9388;SDS011;4734;52.778;6.798;2023-03-03T09:03:49;13.90;;;7.13;;
9388;SDS011;4734;52.778;6.798;2023-03-03T09:06:34;10.30;;;6.80;;
9388;SDS011;4734;52.778;6.798;2023-03-03T09:09:22;11.63;;;8.10;;
9388;SDS011;4734;52.778;6.798;2023-03-03T09:12:12;12.67;;;7.47;;
9388;SDS011;4734;52.778;6.798;2023-03-03T09:14:59;10.17;;;6.70;;
9388;SDS011;4734;52.778;6.798;2023-03-03T09:17:47;14.43;;;7.47;;
9388;SDS011;4734;52.778;6.798;2023-03-03T09:20:36;10.40;;;6.50;;
9388;SDS011;4734;52.778;6.798;2023-03-03T09:23:30;10.50;;;7.23;;
9388;SDS011;4734;52.778;6.798;2023-03-03T09:29:22;11.07;;;6.90;;
9388;SDS011;4734;52.778;6.798;2023-03-03T09:32:15;11.07;;;7.43;;
9388;SDS011;4734;52.778;6.798;2023-03-03T09:38:09;9.60;;;6.37;;
9388;SDS011;4734;52.778;6.798;2023-03-03T09:41:08;9.83;;;6.93;;
9388;SDS011;4734;52.778;6.798;2023-03-03T09:44:02;9.50;;;6.07;;
9388;SDS011;4734;52.778;6.798;2023-03-03T09:46:55;10.17;;;7.03;;
9388;SDS011;4734;52.778;6.798;2023-03-03T09:49:46;8.53;;;5.87;;
9388;SDS011;4734;52.778;6.798;2023-03-03T09:52:39;8.80;;;5.90;;
9388;SDS011;4734;52.778;6.798;2023-03-03T09:55:29;9.87;;;6.10;;
9388;SDS011;4734;52.778;6.798;2023-03-03T10:04:42;6.97;;;5.47;;
9388;SDS011;4734;52.778;6.798;2023-03-03T10:07:32;9.10;;;5.80;;
9388;SDS011;4734;52.778;6.798;2023-03-03T10:10:27;7.83;;;5.37;;
9388;SDS011;4734;52.778;6.798;2023-03-03T10:13:20;8.07;;;5.10;;
9388;SDS011;4734;52.778;6.798;2023-03-03T10:16:10;7.80;;;5.63;;
9388;SDS011;4734;52.778;6.798;2023-03-03T10:19:01;7.50;;;5.33;;
9388;SDS011;4734;52.778;6.798;2023-03-03T10:21:49;6.83;;;4.93;;
9388;SDS011;4734;52.778;6.798;2023-03-03T10:24:36;10.93;;;5.83;;
9388;SDS011;4734;52.778;6.798;2023-03-03T10:27:29;8.93;;;5.77;;
9388;SDS011;4734;52.778;6.798;2023-03-03T10:30:20;6.73;;;5.27;;
9388;SDS011;4734;52.778;6.798;2023-03-03T10:33:10;8.80;;;5.97;;
9388;SDS011;4734;52.778;6.798;2023-03-03T10:36:09;8.63;;;6.00;;
9388;SDS011;4734;52.778;6.798;2023-03-03T10:39:13;8.83;;;5.20;;
9388;SDS011;4734;52.778;6.798;2023-03-03T10:42:14;7.37;;;5.30;;
9388;SDS011;4734;52.778;6.798;2023-03-03T10:45:11;6.87;;;4.90;;
9388;SDS011;4734;52.778;6.798;2023-03-03T10:48:04;7.40;;;5.00;;
9388;SDS011;4734;52.778;6.798;2023-03-03T10:50:55;7.27;;;5.57;;
9388;SDS011;4734;52.778;6.798;2023-03-03T10:53:44;7.93;;;4.63;;
9388;SDS011;4734;52.778;6.798;2023-03-03T10:56:35;5.27;;;4.73;;
9388;SDS011;4734;52.778;6.798;2023-03-03T10:59:33;5.33;;;4.43;;
9388;SDS011;4734;52.778;6.798;2023-03-03T11:02:21;8.60;;;5.00;;
9388;SDS011;4734;52.778;6.798;2023-03-03T11:05:12;7.20;;;5.30;;
9388;SDS011;4734;52.778;6.798;2023-03-03T11:08:00;7.07;;;5.17;;
9388;SDS011;4734;52.778;6.798;2023-03-03T11:11:04;5.13;;;4.50;;
9388;SDS011;4734;52.778;6.798;2023-03-03T11:13:58;6.50;;;4.90;;
9388;SDS011;4734;52.778;6.798;2023-03-03T11:16:49;10.80;;;5.57;;
9388;SDS011;4734;52.778;6.798;2023-03-03T11:19:41;5.40;;;4.90;;
9388;SDS011;4734;52.778;6.798;2023-03-03T11:22:33;7.13;;;5.40;;
9388;SDS011;4734;52.778;6.798;2023-03-03T11:25:31;8.07;;;5.97;;
9388;SDS011;4734;52.778;6.798;2023-03-03T11:28:30;8.67;;;5.70;;
9388;SDS011;4734;52.778;6.798;2023-03-03T11:31:23;6.90;;;5.30;;
9388;SDS011;4734;52.778;6.798;2023-03-03T11:34:14;7.10;;;4.87;;
9388;SDS011;4734;52.778;6.798;2023-03-03T11:37:05;9.13;;;5.73;;
9388;SDS011;4734;52.778;6.798;2023-03-03T11:39:56;9.67;;;5.37;;
9388;SDS011;4734;52.778;6.798;2023-03-03T11:42:57;5.33;;;4.50;;
9388;SDS011;4734;52.778;6.798;2023-03-03T11:45:46;7.13;;;5.60;;
9388;SDS011;4734;52.778;6.798;2023-03-03T11:48:38;6.83;;;5.27;;
9388;SDS011;4734;52.778;6.798;2023-03-03T11:51:33;8.30;;;5.70;;
9388;SDS011;4734;52.778;6.798;2023-03-03T11:54:22;8.60;;;4.97;;
9388;SDS011;4734;52.778;6.798;2023-03-03T11:57:14;7.22;;;4.97;;
9388;SDS011;4734;52.778;6.798;2023-03-03T12:00:04;8.43;;;4.07;;
9388;SDS011;4734;52.778;6.798;2023-03-03T12:06:06;6.30;;;4.60;;
9388;SDS011;4734;52.778;6.798;2023-03-03T12:09:00;5.73;;;4.13;;
9388;SDS011;4734;52.778;6.798;2023-03-03T12:11:47;4.80;;;3.80;;
9388;SDS011;4734;52.778;6.798;2023-03-03T12:14:49;5.97;;;4.20;;
9388;SDS011;4734;52.778;6.798;2023-03-03T12:20:39;4.43;;;3.63;;
9388;SDS011;4734;52.778;6.798;2023-03-03T12:23:38;7.97;;;3.60;;
9388;SDS011;4734;52.778;6.798;2023-03-03T12:26:32;5.40;;;3.83;;
9388;SDS011;4734;52.778;6.798;2023-03-03T12:29:24;6.20;;;3.53;;
9388;SDS011;4734;52.778;6.798;2023-03-03T12:32:17;3.37;;;2.97;;
9388;SDS011;4734;52.778;6.798;2023-03-03T12:35:08;4.90;;;3.53;;
9388;SDS011;4734;52.778;6.798;2023-03-03T12:38:00;4.80;;;3.07;;
9388;SDS011;4734;52.778;6.798;2023-03-03T12:40:53;6.57;;;3.43;;
9388;SDS011;4734;52.778;6.798;2023-03-03T12:43:44;5.43;;;2.63;;
9388;SDS011;4734;52.778;6.798;2023-03-03T12:46:34;4.73;;;2.90;;
9388;SDS011;4734;52.778;6.798;2023-03-03T12:49:24;5.37;;;2.57;;
9388;SDS011;4734;52.778;6.798;2023-03-03T12:52:17;3.53;;;2.63;;
9388;SDS011;4734;52.778;6.798;2023-03-03T12:55:09;4.33;;;2.70;;
9388;SDS011;4734;52.778;6.798;2023-03-03T12:58:00;8.53;;;2.93;;
9388;SDS011;4734;52.778;6.798;2023-03-03T13:00:50;3.03;;;1.90;;
9388;SDS011;4734;52.778;6.798;2023-03-03T13:03:39;1.53;;;1.43;;
9388;SDS011;4734;52.778;6.798;2023-03-03T13:06:29;2.53;;;1.20;;
9388;SDS011;4734;52.778;6.798;2023-03-03T13:09:18;3.00;;;1.30;;
9388;SDS011;4734;52.778;6.798;2023-03-03T13:12:14;2.37;;;1.43;;
9388;SDS011;4734;52.778;6.798;2023-03-03T13:15:09;2.73;;;1.90;;
9388;SDS011;4734;52.778;6.798;2023-03-03T13:18:14;2.33;;;1.70;;
9388;SDS011;4734;52.778;6.798;2023-03-03T13:21:02;2.27;;;1.80;;
9388;SDS011;4734;52.778;6.798;2023-03-03T13:23:51;2.63;;;1.77;;
9388;SDS011;4734;52.778;6.798;2023-03-03T13:26:41;2.27;;;1.60;;
9388;SDS011;4734;52.778;6.798;2023-03-03T13:29:32;4.20;;;1.33;;
9388;SDS011;4734;52.778;6.798;2023-03-03T13:32:21;3.07;;;1.67;;
9388;SDS011;4734;52.778;6.798;2023-03-03T13:35:08;2.40;;;1.67;;
9388;SDS011;4734;52.778;6.798;2023-03-03T13:38:02;3.33;;;1.50;;
9388;SDS011;4734;52.778;6.798;2023-03-03T13:40:51;5.33;;;1.50;;
9388;SDS011;4734;52.778;6.798;2023-03-03T13:43:41;2.27;;;1.60;;
9388;SDS011;4734;52.778;6.798;2023-03-03T13:46:35;3.77;;;1.80;;
9388;SDS011;4734;52.778;6.798;2023-03-03T13:49:32;3.53;;;1.70;;
9388;SDS011;4734;52.778;6.798;2023-03-03T13:52:23;2.33;;;1.70;;
9388;SDS011;4734;52.778;6.798;2023-03-03T13:55:13;1.93;;;1.73;;
9388;SDS011;4734;52.778;6.798;2023-03-03T13:58:05;4.07;;;1.80;;
9388;SDS011;4734;52.778;6.798;2023-03-03T14:00:58;4.13;;;1.83;;
9388;SDS011;4734;52.778;6.798;2023-03-03T14:03:53;2.63;;;1.58;;
9388;SDS011;4734;52.778;6.798;2023-03-03T14:06:41;3.00;;;1.55;;
9388;SDS011;4734;52.778;6.798;2023-03-03T14:12:37;4.67;;;1.30;;
9388;SDS011;4734;52.778;6.798;2023-03-03T14:15:28;2.67;;;1.40;;
9388;SDS011;4734;52.778;6.798;2023-03-03T14:18:17;1.67;;;1.48;;
9388;SDS011;4734;52.778;6.798;2023-03-03T14:21:06;2.53;;;1.20;;
9388;SDS011;4734;52.778;6.798;2023-03-03T14:24:01;4.45;;;1.38;;
9388;SDS011;4734;52.778;6.798;2023-03-03T14:26:51;4.20;;;1.40;;
9388;SDS011;4734;52.778;6.798;2023-03-03T14:29:37;1.55;;;1.40;;
9388;SDS011;4734;52.778;6.798;2023-03-03T14:32:24;6.63;;;1.77;;
9388;SDS011;4734;52.778;6.798;2023-03-03T14:35:16;3.45;;;1.35;;
9388;SDS011;4734;52.778;6.798;2023-03-03T14:38:05;2.17;;;1.10;;
9388;SDS011;4734;52.778;6.798;2023-03-03T14:41:10;2.60;;;1.15;;
9388;SDS011;4734;52.778;6.798;2023-03-03T14:43:59;1.85;;;1.45;;
9388;SDS011;4734;52.778;6.798;2023-03-03T14:46:49;1.90;;;1.33;;
9388;SDS011;4734;52.778;6.798;2023-03-03T14:49:45;1.30;;;1.20;;
9388;SDS011;4734;52.778;6.798;2023-03-03T14:52:33;2.47;;;1.40;;
9388;SDS011;4734;52.778;6.798;2023-03-03T14:55:29;4.95;;;1.38;;
9388;SDS011;4734;52.778;6.798;2023-03-03T14:58:28;3.40;;;1.50;;
9388;SDS011;4734;52.778;6.798;2023-03-03T15:01:15;3.75;;;1.42;;
9388;SDS011;4734;52.778;6.798;2023-03-03T15:04:02;2.85;;;1.50;;
9388;SDS011;4734;52.778;6.798;2023-03-03T15:06:49;2.33;;;1.05;;
9388;SDS011;4734;52.778;6.798;2023-03-03T15:09:36;3.33;;;1.60;;
9388;SDS011;4734;52.778;6.798;2023-03-03T15:12:24;1.65;;;1.20;;
9388;SDS011;4734;52.778;6.798;2023-03-03T15:15:17;6.65;;;1.55;;
9388;SDS011;4734;52.778;6.798;2023-03-03T15:18:08;2.70;;;1.20;;
9388;SDS011;4734;52.778;6.798;2023-03-03T15:20:59;1.42;;;1.33;;
9388;SDS011;4734;52.778;6.798;2023-03-03T15:23:50;3.55;;;1.63;;
9388;SDS011;4734;52.778;6.798;2023-03-03T15:26:42;6.93;;;1.50;;
9388;SDS011;4734;52.778;6.798;2023-03-03T15:29:30;4.55;;;1.42;;
9388;SDS011;4734;52.778;6.798;2023-03-03T15:32:23;4.57;;;1.38;;
9388;SDS011;4734;52.778;6.798;2023-03-03T15:35:14;4.43;;;1.25;;
9388;SDS011;4734;52.778;6.798;2023-03-03T15:38:07;6.10;;;1.70;;
9388;SDS011;4734;52.778;6.798;2023-03-03T15:40:57;2.10;;;1.30;;
9388;SDS011;4734;52.778;6.798;2023-03-03T15:43:50;3.30;;;1.45;;
9388;SDS011;4734;52.778;6.798;2023-03-03T15:46:41;2.95;;;1.30;;
9388;SDS011;4734;52.778;6.798;2023-03-03T15:52:49;2.08;;;1.10;;
9388;SDS011;4734;52.778;6.798;2023-03-03T15:55:43;3.97;;;1.67;;
9388;SDS011;4734;52.778;6.798;2023-03-03T15:58:48;3.78;;;1.65;;
9388;SDS011;4734;52.778;6.798;2023-03-03T16:01:38;6.30;;;1.60;;
9388;SDS011;4734;52.778;6.798;2023-03-03T16:04:28;4.72;;;1.60;;
9388;SDS011;4734;52.778;6.798;2023-03-03T16:07:16;4.97;;;1.90;;
9388;SDS011;4734;52.778;6.798;2023-03-03T16:10:11;4.65;;;2.05;;
9388;SDS011;4734;52.778;6.798;2023-03-03T16:13:06;5.97;;;2.00;;
9388;SDS011;4734;52.778;6.798;2023-03-03T16:15:57;9.77;;;1.98;;
9388;SDS011;4734;52.778;6.798;2023-03-03T16:18:51;5.97;;;2.17;;
9388;SDS011;4734;52.778;6.798;2023-03-03T16:22:02;9.02;;;2.17;;
9388;SDS011;4734;52.778;6.798;2023-03-03T16:24:54;7.13;;;2.45;;
9388;SDS011;4734;52.778;6.798;2023-03-03T16:27:47;6.45;;;2.45;;
9388;SDS011;4734;52.778;6.798;2023-03-03T16:30:36;8.18;;;2.58;;
9388;SDS011;4734;52.778;6.798;2023-03-03T16:33:22;6.25;;;2.10;;
9388;SDS011;4734;52.778;6.798;2023-03-03T16:36:12;7.53;;;2.17;;
9388;SDS011;4734;52.778;6.798;2023-03-03T16:39:05;7.70;;;2.60;;
9388;SDS011;4734;52.778;6.798;2023-03-03T16:41:54;5.38;;;2.13;;
9388;SDS011;4734;52.778;6.798;2023-03-03T16:44:46;8.25;;;2.15;;
9388;SDS011;4734;52.778;6.798;2023-03-03T16:47:37;9.05;;;2.85;;
9388;SDS011;4734;52.778;6.798;2023-03-03T16:50:26;7.78;;;2.17;;
9388;SDS011;4734;52.778;6.798;2023-03-03T16:53:17;4.80;;;2.30;;
9388;SDS011;4734;52.778;6.798;2023-03-03T16:56:05;11.88;;;3.60;;
9388;SDS011;4734;52.778;6.798;2023-03-03T16:58:59;11.70;;;3.28;;
9388;SDS011;4734;52.778;6.798;2023-03-03T17:01:50;12.60;;;2.85;;
9388;SDS011;4734;52.778;6.798;2023-03-03T17:04:38;12.63;;;2.97;;
9388;SDS011;4734;52.778;6.798;2023-03-03T17:07:33;10.60;;;3.00;;
9388;SDS011;4734;52.778;6.798;2023-03-03T17:10:22;11.82;;;3.03;;
9388;SDS011;4734;52.778;6.798;2023-03-03T17:13:13;11.05;;;3.15;;
9388;SDS011;4734;52.778;6.798;2023-03-03T17:16:04;14.88;;;3.60;;
9388;SDS011;4734;52.778;6.798;2023-03-03T17:18:55;8.70;;;2.95;;
9388;SDS011;4734;52.778;6.798;2023-03-03T17:21:51;12.23;;;3.38;;
9388;SDS011;4734;52.778;6.798;2023-03-03T17:24:43;11.45;;;2.90;;
9388;SDS011;4734;52.778;6.798;2023-03-03T17:27:34;10.73;;;3.58;;
9388;SDS011;4734;52.778;6.798;2023-03-03T17:30:24;11.70;;;3.45;;
9388;SDS011;4734;52.778;6.798;2023-03-03T17:33:16;11.40;;;3.15;;
9388;SDS011;4734;52.778;6.798;2023-03-03T17:36:09;15.15;;;3.50;;
9388;SDS011;4734;52.778;6.798;2023-03-03T17:38:59;8.48;;;3.33;;
9388;SDS011;4734;52.778;6.798;2023-03-03T17:41:47;14.13;;;3.15;;
9388;SDS011;4734;52.778;6.798;2023-03-03T17:44:39;38.33;;;21.02;;
9388;SDS011;4734;52.778;6.798;2023-03-03T17:47:32;9.43;;;4.47;;
9388;SDS011;4734;52.778;6.798;2023-03-03T17:50:26;12.05;;;3.80;;
9388;SDS011;4734;52.778;6.798;2023-03-03T17:53:23;9.05;;;3.83;;
9388;SDS011;4734;52.778;6.798;2023-03-03T17:56:13;16.92;;;4.80;;